Terminal Aerodrome Forecast
Issued by NWS

Home | Current Version | Previous Version | Text Only | Print | Product List | Glossary On
Versions: 1 2 3 4 5 6 7 8 9 10 11 12 13 14 15 16 17 18
000
FTUS45 KABQ 041740
TAFFMN
TAF
KFMN 041740Z 0418/0518 VRB06KT P6SM FEW070 SCT150
     FM041900 16007KT P6SM SCT080
     FM042300 23011KT P6SM VCSH BKN080 BKN140
      TEMPO 0501/0505 VRB20G32KT 5SM TSRA OVC045CB
     FM050700 11007KT P6SM VCSH BKN060 BKN120
     FM051400 VRB06KT P6SM SCT030 SCT100=

USA.gov is the U.S. government's official web portal to all federal, state and local government web resources and services.